TimeEDT,TemperatureF,Dew PointF,Humidity,Sea Level PressureIn,VisibilityMPH,Wind Direction,Wind SpeedMPH,Gust SpeedMPH,PrecipitationIn,Events,Conditions,WindDirDegrees,DateUTC
12:54 AM,42.1,28.9,60,30.24,10.0,Calm,Calm,-,N/A,,Clear,0,2013-03-10 05:54:00
1:54 AM,39.9,30.0,68,30.24,10.0,SSE,4.6,-,N/A,,Clear,160,2013-03-10 06:54:00
3:54 AM,39.0,28.9,67,30.22,10.0,Calm,Calm,-,N/A,,Clear,0,2013-03-10 07:54:00
4:54 AM,36.0,30.0,79,30.21,10.0,Calm,Calm,-,N/A,,Clear,0,2013-03-10 08:54:00
5:54 AM,36.0,30.0,79,30.22,10.0,Calm,Calm,-,N/A,,Clear,0,2013-03-10 09:54:00
6:54 AM,35.1,30.0,82,30.23,10.0,Calm,Calm,-,N/A,,Clear,0,2013-03-10 10:54:00
7:54 AM,35.6,30.2,81,30.25,10.0,Calm,Calm,-,N/A,,Clear,0,2013-03-10 11:54:00
8:54 AM,39.0,30.0,70,30.26,10.0,SSE,3.5,-,N/A,,Clear,160,2013-03-10 12:54:00
9:54 AM,42.1,30.9,65,30.26,10.0,SSE,6.9,-,N/A,,Partly Cloudy,150,2013-03-10 13:54:00
10:54 AM,51.1,32.0,48,30.25,10.0,South,8.1,-,N/A,,Clear,180,2013-03-10 14:54:00
11:54 AM,55.0,30.9,40,30.23,10.0,South,9.2,-,N/A,,Clear,170,2013-03-10 15:54:00
12:54 PM,57.9,28.9,33,30.21,10.0,SE,9.2,20.7,N/A,,Clear,140,2013-03-10 16:54:00
1:54 PM,60.1,30.0,32,30.19,10.0,SE,10.4,-,N/A,,Clear,130,2013-03-10 17:54:00
2:54 PM,62.1,28.9,29,30.16,10.0,SE,9.2,18.4,N/A,,Clear,140,2013-03-10 18:54:00
3:54 PM,62.1,28.0,28,30.15,10.0,SE,11.5,18.4,N/A,,Clear,140,2013-03-10 19:54:00
4:54 PM,61.0,28.0,29,30.15,10.0,SE,11.5,21.9,N/A,,Clear,130,2013-03-10 20:54:00
5:54 PM,60.1,30.0,32,30.15,10.0,SE,9.2,18.4,N/A,,Clear,140,2013-03-10 21:54:00
6:54 PM,59.0,30.0,33,30.15,10.0,SE,8.1,-,N/A,,Clear,140,2013-03-10 22:54:00
7:54 PM,55.9,32.0,40,30.17,10.0,SSE,6.9,-,N/A,,Clear,150,2013-03-10 23:54:00
8:54 PM,54.0,33.1,45,30.17,10.0,SE,5.8,-,N/A,,Clear,130,2013-03-11 00:54:00
9:54 PM,53.1,33.1,47,30.17,10.0,SE,6.9,-,N/A,,Clear,130,2013-03-11 01:54:00
10:54 PM,51.1,33.1,50,30.16,10.0,SSE,4.6,-,N/A,,Clear,150,2013-03-11 02:54:00
11:54 PM,48.9,33.1,54,30.15,10.0,SSE,3.5,-,N/A,,Clear,160,2013-03-11 03:54:00
12:54 AM,51.1,33.1,50,30.13,10.0,SSE,6.9,-,N/A,,Overcast,160,2013-03-11 04:54:00